createdAt,value
2018-10-21T00:00:46.699Z,61.94
2018-10-21T00:03:15.151Z,62.28
2018-10-21T00:05:44.286Z,63.24
2018-10-21T00:08:12.662Z,62.78
2018-10-21T00:10:41.089Z,63.21
2018-10-21T00:13:09.455Z,63.82
2018-10-21T00:15:38.044Z,64.06
2018-10-21T00:18:06.305Z,62.08
2018-10-21T00:20:34.715Z,64.04
2018-10-21T00:23:03.972Z,63.29
2018-10-21T00:25:32.254Z,63.16
2018-10-21T00:28:00.535Z,64.07
2018-10-21T00:30:28.855Z,64.95
2018-10-21T00:32:57.213Z,64.14
2018-10-21T00:35:25.583Z,64.75
2018-10-21T00:37:53.953Z,64.72
2018-10-21T00:40:22.327Z,65.95
2018-10-21T00:42:50.710Z,63.88
2018-10-21T00:45:19.123Z,65.12
2018-10-21T00:47:47.526Z,64.27
2018-10-21T00:50:15.910Z,65.61
2018-10-21T00:52:44.297Z,65.32
2018-10-21T00:55:12.692Z,64.23
2018-10-21T00:57:41.083Z,65.82
2018-10-21T01:00:11.287Z,66.63
2018-10-21T01:02:39.783Z,65.09
2018-10-21T01:05:09.031Z,65.10
2018-10-21T01:07:37.400Z,62.42
2018-10-21T01:10:06.888Z,62.64
2018-10-21T01:12:35.429Z,65.11
2018-10-21T01:15:03.869Z,63.41
2018-10-21T01:17:32.311Z,64.99
2018-10-21T01:20:00.700Z,65.27
2018-10-21T01:22:29.131Z,66.31
2018-10-21T01:24:57.495Z,66.92
2018-10-21T01:27:25.849Z,65.16
2018-10-21T01:29:54.213Z,62.81
2018-10-21T01:32:22.579Z,63.58
2018-10-21T01:34:50.939Z,66.43
2018-10-21T01:37:19.356Z,65.15
2018-10-21T01:40:52.051Z,66.49
2018-10-21T01:43:27.875Z,63.14
2018-10-21T01:45:56.547Z,62.72
2018-10-21T01:48:25.919Z,63.64
2018-10-21T01:50:54.254Z,66.78
2018-10-21T01:53:22.842Z,67.12
2018-10-21T01:55:51.228Z,62.86
2018-10-21T01:58:19.611Z,62.93
2018-10-21T02:00:47.956Z,64.77
2018-10-21T02:03:16.544Z,65.89
2018-10-21T02:05:45.508Z,65.82
2018-10-21T02:08:13.819Z,65.00
2018-10-21T02:10:43.422Z,62.74
2018-10-21T02:13:11.826Z,63.72
2018-10-21T02:15:40.175Z,64.96
2018-10-21T02:18:08.510Z,66.00
2018-10-21T02:20:36.846Z,64.52
2018-10-21T02:23:05.244Z,63.97
2018-10-21T02:25:33.602Z,64.91
2018-10-21T02:28:01.975Z,68.41
2018-10-21T02:30:31.176Z,65.57
2018-10-21T02:33:00.427Z,63.95
2018-10-21T02:35:28.745Z,66.28
2018-10-21T02:37:57.760Z,67.19
2018-10-21T02:41:43.450Z,63.94
2018-10-21T02:44:13.435Z,67.38
2018-10-21T02:46:42.391Z,64.94
2018-10-21T02:49:11.632Z,66.24
2018-10-21T02:51:40.048Z,65.76
2018-10-21T02:54:08.802Z,65.27
2018-10-21T02:56:37.205Z,67.09
2018-10-21T02:59:06.403Z,64.83
2018-10-21T03:01:34.879Z,64.00
2018-10-21T03:04:03.336Z,62.79
2018-10-21T03:06:31.811Z,64.97
2018-10-21T03:09:00.331Z,66.89
2018-10-21T03:11:28.690Z,65.38
2018-10-21T03:13:57.113Z,62.89
2018-10-21T03:16:25.564Z,65.65
2018-10-21T03:18:54.107Z,66.10
2018-10-21T03:21:22.672Z,64.52
2018-10-21T03:23:50.975Z,67.21
2018-10-21T03:26:19.368Z,65.38
2018-10-21T03:28:47.851Z,64.19
2018-10-21T03:31:16.292Z,62.76
2018-10-21T03:33:44.917Z,66.24
2018-10-21T03:36:13.202Z,65.58
2018-10-21T03:38:41.747Z,63.33
2018-10-21T03:41:10.089Z,67.40
2018-10-21T03:43:38.527Z,66.95
2018-10-21T03:46:06.992Z,66.71
2018-10-21T03:48:35.520Z,64.62
2018-10-21T03:51:03.930Z,64.98
2018-10-21T03:53:32.452Z,62.98
2018-10-21T03:56:00.908Z,66.31
2018-10-21T03:58:29.375Z,65.62
2018-10-21T04:00:57.832Z,65.81
2018-10-21T04:03:26.246Z,67.42
2018-10-21T04:05:54.684Z,67.27
2018-10-21T04:08:23.254Z,66.28
2018-10-21T04:10:51.672Z,64.48
2018-10-21T04:13:20.058Z,61.93
2018-10-21T04:15:48.504Z,65.45
2018-10-21T04:18:16.800Z,66.32
2018-10-21T04:20:45.223Z,64.13
2018-10-21T04:23:13.602Z,61.80
2018-10-21T04:25:42.046Z,63.64
2018-10-21T04:28:10.802Z,66.06
2018-10-21T04:30:40.239Z,67.06
2018-10-21T04:34:10.672Z,65.14
2018-10-21T04:36:38.916Z,64.59
2018-10-21T04:41:16.916Z,65.89
2018-10-21T04:43:45.368Z,66.90
2018-10-21T04:46:13.839Z,64.23
2018-10-21T04:48:42.259Z,63.26
2018-10-21T04:51:10.669Z,63.94
2018-10-21T04:53:39.002Z,67.48
2018-10-21T04:56:07.319Z,66.67
2018-10-21T04:58:35.799Z,65.80
2018-10-21T05:01:07.464Z,67.54
2018-10-21T05:03:35.930Z,65.40
2018-10-21T05:06:04.202Z,62.68
2018-10-21T05:08:32.615Z,62.25
2018-10-21T05:11:00.977Z,63.95
2018-10-21T05:13:29.343Z,66.88
2018-10-21T05:15:57.762Z,66.50
2018-10-21T05:18:26.067Z,64.51
2018-10-21T05:20:54.415Z,66.71
2018-10-21T05:23:22.764Z,65.23
2018-10-21T05:25:51.163Z,65.18
2018-10-21T05:28:19.586Z,65.22
2018-10-21T05:30:48.038Z,68.09
2018-10-21T05:33:17.395Z,63.81
2018-10-21T05:35:45.768Z,63.45
2018-10-21T05:38:14.163Z,63.49
2018-10-21T05:40:42.809Z,63.07
2018-10-21T05:43:11.208Z,63.57
2018-10-21T05:45:39.731Z,64.34
2018-10-21T05:48:08.227Z,66.02
2018-10-21T05:50:36.771Z,65.26
2018-10-21T05:53:05.338Z,67.61
2018-10-21T05:55:33.862Z,66.63
2018-10-21T05:58:02.588Z,64.19
2018-10-21T06:00:30.977Z,64.70
2018-10-21T06:02:59.754Z,65.32
2018-10-21T06:05:40.657Z,65.06
2018-10-21T06:08:09.641Z,65.28
2018-10-21T06:10:38.171Z,66.85
2018-10-21T06:13:06.832Z,66.82
2018-10-21T06:15:35.501Z,66.59
2018-10-21T06:18:04.939Z,64.75
2018-10-21T06:20:36.927Z,65.53
2018-10-21T06:23:05.720Z,67.46
2018-10-21T06:25:34.275Z,66.24
2018-10-21T06:28:02.867Z,66.06
2018-10-21T06:30:31.682Z,65.85
2018-10-21T06:33:00.361Z,66.78
2018-10-21T06:35:28.802Z,63.71
2018-10-21T06:37:57.299Z,66.04
2018-10-21T06:40:26.199Z,63.41
2018-10-21T06:42:54.738Z,65.16
2018-10-21T06:45:23.377Z,64.92
2018-10-21T06:47:51.806Z,62.65
2018-10-21T06:50:21.082Z,62.90
2018-10-21T06:52:50.043Z,63.45
2018-10-21T06:55:18.635Z,65.23
2018-10-21T06:57:47.364Z,64.57
2018-10-21T07:00:15.924Z,64.52
2018-10-21T07:02:44.415Z,66.14
2018-10-21T07:05:24.796Z,61.95
2018-10-21T07:07:53.335Z,65.57
2018-10-21T07:10:21.775Z,64.84
2018-10-21T07:12:50.391Z,64.56
2018-10-21T07:15:19.195Z,64.23
2018-10-21T07:17:47.866Z,63.20
2018-10-21T07:20:16.466Z,64.13
2018-10-21T07:22:45.466Z,61.79
2018-10-21T07:25:13.926Z,60.29
2018-10-21T07:27:42.913Z,59.60
2018-10-21T07:30:12.610Z,62.16
2018-10-21T07:32:42.080Z,60.35
2018-10-21T07:35:14.034Z,60.14
2018-10-21T07:37:43.178Z,61.55
2018-10-21T07:40:12.537Z,62.46
2018-10-21T07:42:41.879Z,62.39
2018-10-21T07:45:10.982Z,60.91
2018-10-21T07:47:41.607Z,62.16
2018-10-21T07:50:11.231Z,60.92
2018-10-21T07:52:43.166Z,60.93
2018-10-21T07:55:16.426Z,60.80
2018-10-21T07:57:48.242Z,60.68
2018-10-21T08:02:53.797Z,58.76
2018-10-21T08:05:36.447Z,57.44
2018-10-21T08:08:17.435Z,58.92
2018-10-21T08:10:50.479Z,56.80
2018-10-21T08:13:21.134Z,57.30
2018-10-21T08:15:49.732Z,57.48
2018-10-21T08:18:18.705Z,58.15
2018-10-21T08:20:52.610Z,59.09
2018-10-21T08:23:21.161Z,60.11
2018-10-21T08:25:51.632Z,59.37
2018-10-21T08:28:20.157Z,60.51
2018-10-21T08:30:48.959Z,59.54
2018-10-21T08:33:18.380Z,57.20
2018-10-21T08:35:47.506Z,54.79
2018-10-21T08:38:15.972Z,54.26
2018-10-21T08:40:45.449Z,52.62
2018-10-21T08:43:16.333Z,51.62
2018-10-21T08:45:46.034Z,51.51
2018-10-21T08:48:18.011Z,50.78
2018-10-21T08:50:47.223Z,48.91
2018-10-21T08:53:24.460Z,50.14
2018-10-21T08:55:54.222Z,49.37
2018-10-21T08:58:23.852Z,48.89
2018-10-21T09:00:52.302Z,48.12
2018-10-21T09:06:08.259Z,48.42
2018-10-21T09:08:38.577Z,49.81
2018-10-21T09:11:08.157Z,49.76
2018-10-21T09:13:36.458Z,48.44
2018-10-21T09:16:05.828Z,47.61
2018-10-21T09:18:35.357Z,48.54
2018-10-21T09:21:04.020Z,47.29
2018-10-21T09:23:32.555Z,45.19
2018-10-21T09:26:00.908Z,46.14
2018-10-21T09:28:29.287Z,47.42
2018-10-21T09:30:57.663Z,48.17
2018-10-21T09:33:26.197Z,45.79
2018-10-21T09:35:54.570Z,44.53
2018-10-21T09:38:23.393Z,43.17
2018-10-21T09:40:51.807Z,42.52
2018-10-21T09:43:20.297Z,41.79
2018-10-21T09:45:48.651Z,38.82
2018-10-21T09:48:17.018Z,37.34
2018-10-21T09:50:45.621Z,38.24
2018-10-21T09:53:14.221Z,35.92
2018-10-21T09:55:42.651Z,37.01
2018-10-21T09:58:11.123Z,35.66
2018-10-21T10:00:44.670Z,35.62
2018-10-21T10:03:13.180Z,33.89
2018-10-21T10:05:41.515Z,34.67
2018-10-21T10:08:09.820Z,34.54
2018-10-21T10:10:38.207Z,35.55
2018-10-21T10:13:06.613Z,36.55
2018-10-21T10:15:34.972Z,35.54
2018-10-21T10:18:03.388Z,32.74
2018-10-21T10:20:31.811Z,32.78
2018-10-21T10:23:00.243Z,36.42
2018-10-21T10:25:28.666Z,38.47
2018-10-21T10:27:57.091Z,38.44
2018-10-21T10:30:25.633Z,41.26
2018-10-21T10:32:53.971Z,42.08
2018-10-21T10:35:22.328Z,43.10
2018-10-21T10:37:50.835Z,41.63
2018-10-21T10:40:19.432Z,41.28
2018-10-21T10:42:53.438Z,41.45
2018-10-21T10:45:21.951Z,41.78
2018-10-21T10:47:50.768Z,41.44
2018-10-21T10:50:19.300Z,43.79
2018-10-21T10:52:47.853Z,42.27
2018-10-21T10:55:16.330Z,43.67
2018-10-21T10:57:44.794Z,43.97
2018-10-21T11:00:13.300Z,44.45
2018-10-21T11:02:41.708Z,45.64
2018-10-21T11:05:10.626Z,47.40
2018-10-21T11:07:39.083Z,46.88
2018-10-21T11:10:08.523Z,46.80
2018-10-21T11:12:36.883Z,44.53
2018-10-21T11:15:06.117Z,46.44
2018-10-21T11:17:34.475Z,47.95
2018-10-21T11:20:03.016Z,45.06
2018-10-21T11:22:31.474Z,44.98
2018-10-21T11:24:59.920Z,44.76
2018-10-21T11:27:28.228Z,45.34
2018-10-21T11:29:57.803Z,43.13
2018-10-21T11:32:27.123Z,41.83
2018-10-21T11:34:55.527Z,41.41
2018-10-21T11:37:24.003Z,39.17
2018-10-21T11:39:52.467Z,35.34
2018-10-21T11:42:20.859Z,35.34
2018-10-21T11:44:49.405Z,32.87
2018-10-21T11:47:17.736Z,32.80
2018-10-21T11:49:46.080Z,31.58
2018-10-21T11:52:14.503Z,31.50
2018-10-21T11:54:42.855Z,32.97
2018-10-21T11:57:11.194Z,32.27
2018-10-21T11:59:39.587Z,33.31
2018-10-21T12:02:08.046Z,32.67
2018-10-21T12:04:36.411Z,31.34
2018-10-21T12:07:05.488Z,30.69
2018-10-21T12:09:34.001Z,28.85
2018-10-21T12:12:02.446Z,30.46
2018-10-21T12:14:30.876Z,29.22
2018-10-21T12:16:59.247Z,29.94
2018-10-21T12:19:27.731Z,29.82
2018-10-21T12:21:56.090Z,31.75
2018-10-21T12:24:24.414Z,29.39
2018-10-21T12:26:52.787Z,29.93
2018-10-21T12:29:21.158Z,30.71
2018-10-21T12:31:49.502Z,30.00
2018-10-21T12:34:17.850Z,31.30
2018-10-21T12:36:46.107Z,31.23
2018-10-21T12:39:14.378Z,30.00
2018-10-21T12:41:43.058Z,30.26
2018-10-21T12:44:12.401Z,30.91
2018-10-21T12:46:40.769Z,30.08
2018-10-21T12:49:09.116Z,30.30
2018-10-21T12:51:37.459Z,30.25
2018-10-21T12:54:06.907Z,32.07
2018-10-21T12:56:35.224Z,33.55
2018-10-21T12:59:03.549Z,34.79
2018-10-21T13:01:31.887Z,36.75
2018-10-21T13:04:00.211Z,36.50
2018-10-21T13:06:28.488Z,37.10
2018-10-21T13:08:56.762Z,38.52
2018-10-21T13:11:25.142Z,38.42
2018-10-21T13:13:53.462Z,38.88
2018-10-21T13:16:21.783Z,39.65
2018-10-21T13:18:50.143Z,38.64
2018-10-21T13:21:18.424Z,37.43
2018-10-21T13:23:46.778Z,39.51
2018-10-21T13:26:15.043Z,39.77
2018-10-21T13:28:43.366Z,39.56
2018-10-21T13:31:11.671Z,40.73
2018-10-21T13:33:39.970Z,40.30
2018-10-21T13:36:08.330Z,40.44
2018-10-21T13:38:36.700Z,38.98
2018-10-21T13:41:05.350Z,40.23
2018-10-21T13:43:33.781Z,41.43
2018-10-21T13:46:02.237Z,39.92
2018-10-21T13:48:30.570Z,39.90
2018-10-21T13:50:59.026Z,41.16
2018-10-21T13:53:27.570Z,40.56
2018-10-21T13:55:56.003Z,40.49
2018-10-21T13:58:24.473Z,40.49
2018-10-21T14:00:53.066Z,39.26
2018-10-21T14:03:21.584Z,39.83
2018-10-21T14:05:49.994Z,40.07
2018-10-21T14:08:18.623Z,41.00
2018-10-21T14:10:47.150Z,39.95
2018-10-21T14:13:15.613Z,42.66
2018-10-21T14:15:43.935Z,41.44
2018-10-21T14:18:12.286Z,42.29
2018-10-21T14:20:40.671Z,42.97
2018-10-21T14:23:09.135Z,43.11
2018-10-21T14:25:37.575Z,42.52
2018-10-21T14:28:06.106Z,43.12
2018-10-21T14:30:34.609Z,43.74
2018-10-21T14:33:02.995Z,41.91
2018-10-21T14:35:31.439Z,42.19
2018-10-21T14:37:59.992Z,42.57
2018-10-21T14:40:28.325Z,43.50
2018-10-21T14:42:56.824Z,42.94
2018-10-21T14:45:25.227Z,41.76
2018-10-21T14:47:53.606Z,42.49
2018-10-21T14:50:21.971Z,41.50
2018-10-21T14:52:50.402Z,41.52
2018-10-21T14:55:18.928Z,41.62
2018-10-21T14:57:47.188Z,40.91
2018-10-21T15:00:15.657Z,41.78
2018-10-21T15:02:43.966Z,42.17
2018-10-21T15:05:13.346Z,41.28
2018-10-21T15:07:42.984Z,42.75
2018-10-21T15:10:11.891Z,42.24
2018-10-21T15:12:40.243Z,41.85
2018-10-21T15:15:10.500Z,41.69
2018-10-21T15:17:39.071Z,40.96
2018-10-21T15:20:09.289Z,41.50
2018-10-21T15:22:37.600Z,42.01
2018-10-21T15:25:08.121Z,41.52
2018-10-21T15:27:36.426Z,41.39
2018-10-21T15:30:05.639Z,42.41
2018-10-21T15:32:33.959Z,41.45
2018-10-21T15:35:02.425Z,42.80
2018-10-21T15:37:30.787Z,42.14
2018-10-21T15:39:59.277Z,43.44
2018-10-21T15:42:27.562Z,44.14
2018-10-21T15:44:55.806Z,43.41
2018-10-21T15:47:24.138Z,44.52
2018-10-21T15:49:52.443Z,43.63
2018-10-21T15:52:21.091Z,44.00
2018-10-21T15:54:49.338Z,45.03
2018-10-21T15:57:17.649Z,45.54
2018-10-21T15:59:46.213Z,45.21
2018-10-21T16:02:14.604Z,45.46
2018-10-21T16:04:42.796Z,46.28
2018-10-21T16:07:11.171Z,46.81
2018-10-21T16:09:39.631Z,47.66
2018-10-21T16:12:08.055Z,48.87
2018-10-21T16:14:36.613Z,49.77
2018-10-21T16:17:05.339Z,50.37
2018-10-21T16:19:33.846Z,50.28
2018-10-21T16:22:02.557Z,49.21
2018-10-21T16:24:30.950Z,49.75
2018-10-21T16:26:59.457Z,49.41
2018-10-21T16:29:27.915Z,50.46
2018-10-21T16:31:56.428Z,50.81
2018-10-21T16:34:24.795Z,51.00
2018-10-21T16:36:53.230Z,50.85
2018-10-21T16:39:21.751Z,51.87
2018-10-21T16:41:50.185Z,51.55
2018-10-21T16:44:18.674Z,51.93
2018-10-21T16:46:47.239Z,51.65
2018-10-21T16:49:15.795Z,52.97
2018-10-21T16:51:44.170Z,52.89
2018-10-21T16:54:12.700Z,53.21
2018-10-21T16:56:41.110Z,52.99
2018-10-21T16:59:09.563Z,53.06
2018-10-21T17:01:38.044Z,53.35
2018-10-21T17:04:06.847Z,54.29
2018-10-21T17:06:35.315Z,53.47
2018-10-21T17:09:03.904Z,53.04
2018-10-21T17:11:32.328Z,54.03
2018-10-21T17:14:00.794Z,53.96
2018-10-21T17:16:29.303Z,54.79
2018-10-21T17:18:57.757Z,54.78
2018-10-21T17:21:26.216Z,55.81
2018-10-21T17:23:54.751Z,56.23
2018-10-21T17:26:23.215Z,56.31
2018-10-21T17:28:51.705Z,56.49
2018-10-21T17:31:20.123Z,56.67
2018-10-21T17:33:48.558Z,57.23
2018-10-21T17:36:17.012Z,57.20
2018-10-21T17:38:45.455Z,56.44
2018-10-21T17:41:13.915Z,56.54
2018-10-21T17:43:42.355Z,57.53
2018-10-21T17:46:10.865Z,56.03
2018-10-21T17:48:39.138Z,57.07
2018-10-21T17:51:07.606Z,57.59
2018-10-21T17:53:35.959Z,56.49
2018-10-21T17:56:05.672Z,58.62
2018-10-21T17:58:34.978Z,57.29
2018-10-21T18:01:03.229Z,57.58
2018-10-21T18:03:31.610Z,57.23
2018-10-21T18:05:59.987Z,58.83
2018-10-21T18:08:28.416Z,58.22
2018-10-21T18:10:56.803Z,58.10
2018-10-21T18:13:25.196Z,59.60
2018-10-21T18:15:53.646Z,59.04
2018-10-21T18:18:21.991Z,60.56
2018-10-21T18:20:50.479Z,58.82
2018-10-21T18:23:18.971Z,58.45
2018-10-21T18:25:47.483Z,59.72
2018-10-21T18:28:16.018Z,59.31
2018-10-21T18:30:44.451Z,59.67
2018-10-21T18:33:12.954Z,58.72
2018-10-21T18:35:41.462Z,59.40
2018-10-21T18:38:09.850Z,58.82
2018-10-21T18:40:38.334Z,60.28
2018-10-21T18:43:06.841Z,60.09
2018-10-21T18:45:35.335Z,58.38
2018-10-21T18:48:03.719Z,59.09
2018-10-21T18:50:32.201Z,60.12
2018-10-21T18:53:00.735Z,60.29
2018-10-21T18:55:29.257Z,59.86
2018-10-21T18:57:57.710Z,61.00
2018-10-21T19:00:26.170Z,60.21
2018-10-21T19:02:54.572Z,61.20
2018-10-21T19:05:23.059Z,59.29
2018-10-21T19:07:51.547Z,60.91
2018-10-21T19:10:19.942Z,59.26
2018-10-21T19:12:59.572Z,60.34
2018-10-21T19:15:16.927Z,59.96
2018-10-21T19:17:45.379Z,59.37
2018-10-21T19:20:15.891Z,60.76
2018-10-21T19:22:44.162Z,61.35
2018-10-21T19:25:13.849Z,62.20
2018-10-21T19:27:42.771Z,61.58
2018-10-21T19:30:12.279Z,60.70
2018-10-21T19:32:41.206Z,62.30
2018-10-21T19:35:11.020Z,60.99
2018-10-21T19:37:39.990Z,60.71
2018-10-21T19:40:09.707Z,60.00
2018-10-21T19:42:38.106Z,59.84
2018-10-21T19:45:07.309Z,61.89
2018-10-21T19:47:35.683Z,61.02
2018-10-21T19:50:04.163Z,60.92
2018-10-21T19:52:32.583Z,60.55
2018-10-21T19:55:01.072Z,63.40
2018-10-21T19:57:29.550Z,62.93
2018-10-21T19:59:58.128Z,60.76
2018-10-21T20:02:26.832Z,61.76
2018-10-21T20:04:55.266Z,60.49
2018-10-21T20:07:23.814Z,61.86
2018-10-21T20:09:52.331Z,60.84
2018-10-21T20:12:21.043Z,62.11
2018-10-21T20:14:49.443Z,62.86
2018-10-21T20:17:17.842Z,60.90
2018-10-21T20:19:47.324Z,61.11
2018-10-21T20:22:15.878Z,62.42
2018-10-21T20:24:44.271Z,62.90
2018-10-21T20:27:12.719Z,61.57
2018-10-21T20:29:41.196Z,61.17
2018-10-21T20:32:09.723Z,63.02
2018-10-21T20:34:38.151Z,61.62
2018-10-21T20:37:06.578Z,61.87
2018-10-21T20:39:35.067Z,62.53
2018-10-21T20:42:03.720Z,63.04
2018-10-21T20:44:32.135Z,62.10
2018-10-21T20:47:00.660Z,62.61
2018-10-21T20:49:29.099Z,61.48
2018-10-21T20:51:57.569Z,64.50
2018-10-21T20:54:32.091Z,62.17
2018-10-21T20:57:05.247Z,62.89
2018-10-21T20:59:33.566Z,61.59
2018-10-21T21:02:01.831Z,62.49
2018-10-21T21:04:30.231Z,62.09
2018-10-21T21:06:58.852Z,62.23
2018-10-21T21:09:27.395Z,62.40
2018-10-21T21:11:55.888Z,62.10
2018-10-21T21:14:24.403Z,63.76
2018-10-21T21:16:52.863Z,64.71
2018-10-21T21:19:21.340Z,62.01
2018-10-21T21:21:50.015Z,63.08
2018-10-21T21:24:18.571Z,64.23
2018-10-21T21:26:47.581Z,63.34
2018-10-21T21:29:16.023Z,61.42
2018-10-21T21:31:45.204Z,63.57
2018-10-21T21:34:14.030Z,63.01
2018-10-21T21:36:42.415Z,62.21
2018-10-21T21:39:12.771Z,61.57
2018-10-21T21:41:42.414Z,63.21
2018-10-21T21:44:10.855Z,64.20
2018-10-21T21:46:40.003Z,64.08
2018-10-21T21:49:09.452Z,64.22
2018-10-21T21:51:38.107Z,63.71
2018-10-21T21:54:07.402Z,61.76
2018-10-21T21:56:35.798Z,62.77
2018-10-21T21:59:04.243Z,62.64
2018-10-21T22:01:32.690Z,61.65
2018-10-21T22:04:01.155Z,63.50
2018-10-21T22:06:29.617Z,62.78
2018-10-21T22:08:58.216Z,64.68
2018-10-21T22:11:26.707Z,62.96
2018-10-21T22:13:55.150Z,62.31
2018-10-21T22:16:23.611Z,62.58
2018-10-21T22:18:51.988Z,62.20
2018-10-21T22:21:20.443Z,61.95
2018-10-21T22:23:48.876Z,61.30
2018-10-21T22:26:17.355Z,61.78
2018-10-21T22:28:45.839Z,62.97
2018-10-21T22:31:14.361Z,60.85
2018-10-21T22:33:42.762Z,61.55
2018-10-21T22:36:11.381Z,63.43
2018-10-21T22:38:39.631Z,65.54
2018-10-21T22:41:08.090Z,65.70
2018-10-21T22:43:36.663Z,64.94
2018-10-21T22:46:05.257Z,64.18
2018-10-21T22:48:33.815Z,62.31
2018-10-21T22:51:02.198Z,62.77
2018-10-21T22:53:30.839Z,62.92
2018-10-21T22:55:59.286Z,64.21
2018-10-21T22:58:27.735Z,63.01
2018-10-21T23:00:56.219Z,63.44
2018-10-21T23:03:24.710Z,62.49
2018-10-21T23:05:53.099Z,63.78
2018-10-21T23:08:21.652Z,64.09
2018-10-21T23:10:50.011Z,63.15
2018-10-21T23:13:18.383Z,62.76
2018-10-21T23:15:46.815Z,62.94
2018-10-21T23:18:15.305Z,63.27
2018-10-21T23:20:43.638Z,65.54
2018-10-21T23:23:12.056Z,63.05
2018-10-21T23:25:40.531Z,62.39
2018-10-21T23:28:09.038Z,62.66
2018-10-21T23:30:37.431Z,62.45
2018-10-21T23:33:05.831Z,62.09
2018-10-21T23:35:34.250Z,63.53
2018-10-21T23:38:02.715Z,63.22
2018-10-21T23:40:31.218Z,63.55
2018-10-21T23:42:59.694Z,64.60
2018-10-21T23:45:28.079Z,64.00
2018-10-21T23:47:56.461Z,63.98
2018-10-21T23:50:24.839Z,63.61
2018-10-21T23:52:53.219Z,62.77
2018-10-21T23:55:21.603Z,62.78
2018-10-21T23:57:49.971Z,62.87
